Time;durP1;ratioP1;P1;durP2;ratioP2;P2;SDS_P1;SDS_P2;PMS_P1;PMS_P2;Temp;Humidity;BMP_temperature;BMP_pressure;BME280_temperature;BME280_humidity;BME280_pressure;Samples;Min_cycle;Max_cycle;Signal;HPM_P1;HPM_P2
2022/12/04 00:02:21;;;;;;;15.30;8.15;;;;;;;-5.25;81.35;103209.47;10584288;28;20051;-78
2022/12/04 00:07:23;;;;;;;12.57;7.18;;;;;;;-5.29;81.81;103199.97;10626450;27;20054;-75
2022/12/04 00:12:25;;;;;;;12.82;7.18;;;;;;;-5.27;82.15;103205.22;10652703;27;20047;-77
2022/12/04 00:17:28;;;;;;;10.82;7.20;;;;;;;-5.31;82.83;103207.28;10635058;27;20053;-77
2022/12/04 00:22:30;;;;;;;14.55;6.95;;;;;;;-5.34;83.10;103191.44;10654807;27;20035;-76
2022/12/04 00:27:32;;;;;;;15.25;8.20;;;;;;;-5.35;83.39;103199.59;10629218;27;20046;-76
2022/12/04 00:32:34;;;;;;;16.33;7.97;;;;;;;-5.24;83.50;103200.47;10603726;27;20056;-76
2022/12/04 00:37:36;;;;;;;13.38;8.25;;;;;;;-5.27;83.65;103194.50;10625864;27;20051;-76
2022/12/04 00:42:38;;;;;;;13.80;8.23;;;;;;;-5.25;84.18;103201.44;10648575;27;20039;-78
2022/12/04 00:47:40;;;;;;;12.20;7.38;;;;;;;-5.29;84.64;103199.13;10625616;28;20048;-77
2022/12/04 00:52:43;;;;;;;14.75;8.45;;;;;;;-5.35;85.11;103200.44;10649759;28;20043;-77
2022/12/04 00:57:45;;;;;;;12.80;7.70;;;;;;;-5.34;85.42;103198.63;10652334;28;20050;-77
2022/12/04 01:02:47;;;;;;;15.30;7.72;;;;;;;-5.35;85.77;103210.31;10652541;28;20031;-77
2022/12/04 01:07:49;;;;;;;11.48;7.75;;;;;;;-5.36;86.29;103203.25;10650289;27;20042;-78
2022/12/04 01:12:52;;;;;;;13.13;7.68;;;;;;;-5.37;86.57;103199.72;10626174;27;20031;-79
2022/12/04 01:18:24;;;;;;;16.75;8.18;;;;;;;-5.39;86.67;103204.28;10618550;27;20031;-77
2022/12/04 01:23:26;;;;;;;17.67;8.93;;;;;;;-5.38;87.15;103207.81;10620438;27;20426;-77
2022/12/04 01:28:28;;;;;;;18.65;9.65;;;;;;;-5.40;87.70;103213.28;10634285;27;20051;-77
2022/12/04 01:33:35;;;;;;;12.52;8.50;;;;;;;-5.38;87.66;103218.53;10659889;27;20061;-77
2022/12/04 01:38:38;;;;;;;13.13;7.40;;;;;;;-5.48;87.91;103227.25;10641246;27;20444;-77
2022/12/04 01:43:41;;;;;;;15.68;8.82;;;;;;;-5.51;88.47;103215.94;10626389;27;20046;-77
2022/12/04 01:48:48;;;;;;;14.07;7.43;;;;;;;-5.49;88.55;103209.50;10640403;27;20047;-78
2022/12/04 01:53:53;;;;;;;15.32;8.75;;;;;;;-5.54;89.05;103210.81;10642630;27;20046;-77
2022/12/04 01:58:58;;;;;;;14.35;8.23;;;;;;;-5.55;88.89;103219.81;10639642;27;20039;-78
2022/12/04 02:04:01;;;;;;;13.95;7.82;;;;;;;-5.55;88.78;103209.09;10625030;27;20509;-78
2022/12/04 02:09:03;;;;;;;18.00;8.85;;;;;;;-5.51;89.37;103206.06;10657682;27;20053;-78
2022/12/04 02:14:19;;;;;;;16.42;7.45;;;;;;;-5.48;89.18;103205.00;10636692;27;20062;-78
2022/12/04 02:19:53;;;;;;;19.85;9.73;;;;;;;-5.49;89.24;103197.94;10659305;27;20039;-78
2022/12/04 02:25:03;;;;;;;19.42;9.65;;;;;;;-5.52;88.54;103195.50;10660264;27;20035;-77
2022/12/04 02:30:06;;;;;;;14.52;7.80;;;;;;;-5.45;88.74;103204.75;10625114;27;20065;-78
2022/12/04 02:35:21;;;;;;;20.48;9.75;;;;;;;-5.36;88.64;103203.25;10626131;27;20044;-78
2022/12/04 02:40:26;;;;;;;19.95;10.40;;;;;;;-5.31;88.22;103201.06;10615741;28;20042;-78
2022/12/04 02:45:40;;;;;;;20.63;9.70;;;;;;;-5.36;88.54;103193.41;10601774;27;20031;-77
2022/12/04 02:50:45;;;;;;;21.02;9.18;;;;;;;-5.42;88.04;103199.19;10640428;27;20046;-78
2022/12/04 02:55:56;;;;;;;15.27;8.55;;;;;;;-5.47;88.02;103193.31;10657340;27;20493;-78
2022/12/04 03:01:40;;;;;;;15.40;8.57;;;;;;;-5.46;87.71;103203.91;10584707;27;20032;-79
2022/12/04 03:06:44;;;;;;;21.58;10.75;;;;;;;-5.42;87.81;103214.38;10577067;28;20506;-77
2022/12/04 03:11:56;;;;;;;23.08;10.93;;;;;;;-5.44;87.67;103201.13;10614390;28;20051;-76
2022/12/04 03:17:06;;;;;;;19.25;10.13;;;;;;;-5.47;87.54;103202.22;10580265;27;20048;-78
2022/12/04 03:22:38;;;;;;;17.05;8.60;;;;;;;-5.53;86.78;103202.66;10563308;28;20409;-77
2022/12/04 03:28:16;;;;;;;12.45;6.32;;;;;;;-5.52;87.44;103217.75;10600780;28;20065;-78
2022/12/04 03:33:31;;;;;;;15.52;8.73;;;;;;;-5.48;87.07;103215.69;10600802;27;20531;-78
2022/12/04 03:38:57;;;;;;;18.58;10.40;;;;;;;-5.61;87.02;103223.75;10637840;27;20416;-78
2022/12/04 03:44:07;;;;;;;22.63;9.55;;;;;;;-5.65;86.84;103219.59;10597956;27;20043;-76
2022/12/04 03:49:30;;;;;;;19.88;8.65;;;;;;;-5.67;86.66;103215.34;10639108;27;20046;-76
2022/12/04 03:54:43;;;;;;;19.13;9.65;;;;;;;-5.62;87.05;103234.56;10636253;27;20054;-78
2022/12/04 03:59:54;;;;;;;19.45;9.38;;;;;;;-5.67;87.18;103220.69;10637897;27;20034;-78
2022/12/04 04:05:02;;;;;;;20.20;10.23;;;;;;;-5.69;86.46;103222.63;10636336;27;20045;-77
2022/12/04 04:10:09;;;;;;;20.85;9.07;;;;;;;-5.68;87.02;103227.84;10619908;27;20055;-77
2022/12/04 04:26:47;;;;;;;20.48;9.98;;;;;;;-5.67;86.78;103221.53;10577797;27;20043;-78
2022/12/04 04:32:35;;;;;;;18.90;11.37;;;;;;;-5.78;86.81;103224.97;10612941;27;20051;-79
2022/12/04 04:37:46;;;;;;;21.92;10.90;;;;;;;-5.85;87.06;103223.72;10568042;28;20050;-77
2022/12/04 04:43:01;;;;;;;20.60;10.18;;;;;;;-5.91;86.89;103221.50;10601564;28;20043;-80
2022/12/04 04:48:18;;;;;;;24.95;11.18;;;;;;;-5.90;87.44;103225.03;10581617;28;20039;-79
2022/12/04 04:53:29;;;;;;;21.52;11.40;;;;;;;-5.90;87.39;103219.69;10587809;28;20051;-79
2022/12/04 04:58:32;;;;;;;26.38;10.52;;;;;;;-5.95;87.72;103233.41;10590543;28;20520;-81
2022/12/04 05:03:35;;;;;;;20.90;10.02;;;;;;;-5.98;87.53;103230.09;10592204;28;20043;-81
2022/12/04 05:08:37;;;;;;;22.77;10.68;;;;;;;-5.95;88.01;103238.75;10589976;28;20051;-81
2022/12/04 05:13:39;;;;;;;25.02;12.00;;;;;;;-5.97;88.04;103235.31;10611748;28;20072;-81
2022/12/04 05:19:52;;;;;;;26.17;13.25;;;;;;;-6.04;88.34;103244.75;10600072;28;20039;-81
2022/12/04 05:24:04;;;;;;;21.73;11.27;;;;;;;-6.06;88.46;103241.34;10621440;28;20039;-81
2022/12/04 05:29:10;;;;;;;14.45;7.68;;;;;;;-6.09;88.71;103238.84;10592645;28;20035;-81
2022/12/04 05:34:12;;;;;;;21.40;9.27;;;;;;;-6.05;88.61;103243.06;10586660;28;20047;-81
2022/12/04 05:39:15;;;;;;;22.85;11.23;;;;;;;-6.01;88.33;103243.69;10623526;28;20046;-81
2022/12/04 05:44:17;;;;;;;25.00;10.48;;;;;;;-5.98;88.18;103233.63;10616301;28;20418;-81
2022/12/04 05:49:19;;;;;;;21.80;10.50;;;;;;;-5.96;88.11;103245.06;10634249;28;20046;-83
2022/12/04 05:54:25;;;;;;;19.77;9.63;;;;;;;-5.89;87.91;103245.47;10555768;28;20143;-81
2022/12/04 05:59:28;;;;;;;19.38;8.82;;;;;;;-5.94;87.89;103243.13;10631664;27;20409;-81
2022/12/04 06:04:30;;;;;;;19.15;10.05;;;;;;;-5.92;87.40;103259.91;10610038;28;20066;-81
2022/12/04 06:09:33;;;;;;;23.20;9.02;;;;;;;-5.90;87.75;103244.63;10613420;28;20043;-81
2022/12/04 06:14:35;;;;;;;18.13;9.50;;;;;;;-5.88;87.18;103253.38;10612455;28;20047;-81
2022/12/04 06:19:41;;;;;;;22.80;10.65;;;;;;;-5.86;87.19;103253.25;10612597;28;20031;-81
2022/12/04 06:24:47;;;;;;;23.33;10.32;;;;;;;-5.93;87.08;103249.31;10612579;28;20516;-81
2022/12/04 06:35:24;;;;;;;21.40;10.80;;;;;;;-5.94;86.76;103256.50;10611194;28;20051;-80
2022/12/04 06:40:27;;;;;;;22.63;10.73;;;;;;;-5.96;87.27;103253.06;10612427;28;20031;-80
2022/12/04 06:45:29;;;;;;;16.50;9.40;;;;;;;-5.93;86.75;103263.53;10641195;27;20039;-80
2022/12/04 06:50:35;;;;;;;22.77;11.40;;;;;;;-5.93;86.54;103268.88;10627171;27;20052;-80
2022/12/04 06:55:38;;;;;;;20.95;11.10;;;;;;;-5.98;87.19;103262.16;10610199;27;20077;-80
2022/12/04 07:00:44;;;;;;;24.52;10.02;;;;;;;-6.01;86.73;103263.25;10561317;28;20049;-80
2022/12/04 07:05:46;;;;;;;21.40;10.07;;;;;;;-5.77;87.36;103261.44;10598860;27;20209;-80
2022/12/04 07:10:52;;;;;;;24.88;10.10;;;;;;;-5.32;87.07;103277.81;10617919;27;20432;-81
2022/12/04 07:15:59;;;;;;;20.48;9.75;;;;;;;-5.20;86.90;103268.91;10630127;27;20054;-82
2022/12/04 07:21:10;;;;;;;20.30;9.13;;;;;;;-4.61;86.42;103262.69;10613154;28;20047;-81
2022/12/04 07:26:13;;;;;;;20.83;9.98;;;;;;;-4.81;85.49;103266.88;10612561;28;20513;-82
2022/12/04 07:31:17;;;;;;;21.25;9.48;;;;;;;-4.87;84.62;103278.03;10613352;28;20043;-80
2022/12/04 07:36:21;;;;;;;22.33;10.30;;;;;;;-5.09;84.67;103280.63;10596201;27;20036;-80
2022/12/04 07:41:23;;;;;;;23.52;10.25;;;;;;;-5.25;84.45;103287.09;10621530;27;20036;-80
2022/12/04 07:46:26;;;;;;;24.85;10.52;;;;;;;-5.35;84.96;103270.03;10616347;27;20031;-80
2022/12/04 07:51:29;;;;;;;22.80;10.80;;;;;;;-5.22;85.50;103267.28;10637004;27;20035;-81
2022/12/04 07:56:32;;;;;;;24.55;10.80;;;;;;;-5.31;85.62;103276.84;10652540;27;20035;-81
2022/12/04 08:01:34;;;;;;;24.08;10.27;;;;;;;-5.05;85.94;103274.91;10616999;27;20038;-81
2022/12/04 08:06:36;;;;;;;22.30;9.90;;;;;;;-5.01;84.76;103268.38;10635158;27;20047;-81
2022/12/04 08:11:39;;;;;;;22.45;9.75;;;;;;;-5.15;83.95;103265.88;10624033;27;20048;-82
2022/12/04 08:16:42;;;;;;;21.85;10.23;;;;;;;-5.22;83.83;103268.13;10610345;28;20510;-81
2022/12/04 08:21:45;;;;;;;18.95;8.90;;;;;;;-5.19;83.42;103275.09;10599980;28;20040;-81
2022/12/04 08:26:47;;;;;;;19.30;9.52;;;;;;;-5.10;83.19;103266.38;10569027;28;20521;-81
2022/12/04 08:31:49;;;;;;;18.90;10.00;;;;;;;-5.18;82.71;103275.00;10570103;28;20067;-81
2022/12/04 08:36:51;;;;;;;22.55;9.70;;;;;;;-5.11;82.72;103282.56;10614665;27;20039;-81
2022/12/04 08:41:53;;;;;;;18.45;9.15;;;;;;;-5.09;82.39;103277.94;10611638;28;20532;-80
2022/12/04 08:46:55;;;;;;;11.43;5.50;;;;;;;-5.20;82.97;103274.25;10613581;28;20048;-81
2022/12/04 08:51:58;;;;;;;20.17;8.68;;;;;;;-5.26;82.41;103279.19;10650256;28;20050;-80
2022/12/04 08:57:00;;;;;;;17.75;8.90;;;;;;;-5.01;82.47;103272.88;10624284;27;20035;-80
2022/12/04 09:02:02;;;;;;;18.92;9.43;;;;;;;-4.66;82.42;103276.44;10589938;28;20233;-81
2022/12/04 09:07:04;;;;;;;17.73;7.72;;;;;;;-4.76;81.23;103264.69;10551773;28;20047;-81
2022/12/04 09:12:07;;;;;;;15.38;8.13;;;;;;;-5.09;80.98;103269.91;10578602;28;20067;-80
2022/12/04 09:17:09;;;;;;;19.88;8.10;;;;;;;-4.96;81.52;103270.69;10606954;28;20051;-79
2022/12/04 09:22:11;;;;;;;16.88;6.93;;;;;;;-4.82;81.19;103273.19;10618218;28;20047;-79
2022/12/04 09:27:14;;;;;;;12.73;5.07;;;;;;;-4.76;81.33;103262.00;10605444;28;20043;-78
2022/12/04 09:32:16;;;;;;;13.75;6.38;;;;;;;-4.87;81.05;103262.81;10650203;27;20047;-78
2022/12/04 09:37:18;;;;;;;18.33;7.63;;;;;;;-4.86;81.34;103251.16;10623567;27;20048;-78
2022/12/04 09:43:05;;;;;;;13.80;7.03;;;;;;;-4.69;80.51;103247.16;10624111;27;20043;-78
2022/12/04 09:48:09;;;;;;;13.73;6.32;;;;;;;-4.99;80.85;103253.06;10544945;27;20047;-78
2022/12/04 09:53:18;;;;;;;6.93;4.63;;;;;;;-5.06;81.15;103254.47;10642684;27;20042;-78
2022/12/04 09:58:22;;;;;;;9.10;5.03;;;;;;;-5.20;81.83;103242.13;10656258;27;20035;-78
2022/12/04 10:03:27;;;;;;;10.45;5.28;;;;;;;-5.24;82.27;103245.97;10625184;27;20051;-78
2022/12/04 10:08:38;;;;;;;16.55;6.82;;;;;;;-5.25;82.65;103238.91;10567829;28;20088;-77
2022/12/04 10:14:13;;;;;;;13.95;6.22;;;;;;;-5.21;82.55;103240.44;10595817;27;20555;-78
2022/12/04 10:19:16;;;;;;;12.43;5.80;;;;;;;-5.04;82.62;103243.63;10644469;27;20043;-78
2022/12/04 10:24:52;;;;;;;14.25;6.07;;;;;;;-5.05;83.35;103242.78;10627302;27;20500;-78
2022/12/04 10:29:57;;;;;;;16.35;5.63;;;;;;;-4.99;83.24;103231.63;10535869;28;20054;-78
2022/12/04 10:35:40;;;;;;;13.20;5.65;;;;;;;-5.03;83.40;103238.19;10591230;27;20509;-78
2022/12/04 10:40:47;;;;;;;14.27;5.82;;;;;;;-5.09;84.03;103229.75;10650631;27;20497;-78
2022/12/04 10:45:50;;;;;;;8.55;4.35;;;;;;;-5.19;84.21;103226.94;10651720;27;20039;-79
2022/12/04 10:50:53;;;;;;;10.55;4.40;;;;;;;-5.17;84.86;103220.47;10622863;27;20035;-76
2022/12/04 10:55:55;;;;;;;13.30;5.97;;;;;;;-5.23;85.37;103225.41;10625441;27;20036;-78
2022/12/04 11:01:11;;;;;;;14.00;5.60;;;;;;;-5.09;85.49;103214.53;10563542;27;20043;-80
2022/12/04 11:06:13;;;;;;;15.52;5.20;;;;;;;-5.11;85.82;103212.94;10598564;27;20457;-80
2022/12/04 11:11:28;;;;;;;14.68;6.25;;;;;;;-5.29;85.84;103216.03;10623179;27;20043;-78
2022/12/04 11:16:39;;;;;;;10.95;4.57;;;;;;;-5.32;86.21;103205.56;10625452;27;20526;-80
2022/12/04 11:21:41;;;;;;;14.27;5.90;;;;;;;-4.84;86.10;103199.31;10596326;27;20519;-78
2022/12/04 11:26:45;;;;;;;12.48;5.32;;;;;;;-4.74;86.70;103187.75;10614658;27;20090;-78
2022/12/04 11:31:51;;;;;;;10.38;5.47;;;;;;;-4.60;86.39;103187.53;10595646;27;20427;-78
2022/12/04 11:36:55;;;;;;;9.82;4.68;;;;;;;-4.67;86.59;103186.31;10616320;27;20414;-78
2022/12/04 11:42:00;;;;;;;11.65;5.25;;;;;;;-4.86;86.11;103186.00;10594475;27;20047;-78
2022/12/04 11:47:15;;;;;;;16.13;6.13;;;;;;;-4.88;85.94;103183.44;10591165;28;20038;-77
2022/12/04 11:52:30;;;;;;;10.50;4.78;;;;;;;-4.83;86.18;103184.94;10589614;27;20062;-78
2022/12/04 11:57:44;;;;;;;11.07;4.75;;;;;;;-4.71;86.52;103184.81;10609497;27;20456;-78
2022/12/04 12:03:14;;;;;;;9.60;4.40;;;;;;;-4.67;86.15;103185.47;10616211;27;20035;-77
2022/12/04 12:08:36;;;;;;;13.18;5.40;;;;;;;-4.78;86.15;103183.59;10595983;27;20043;-78
2022/12/04 12:13:58;;;;;;;12.23;4.45;;;;;;;-4.76;85.88;103183.50;10608069;28;20047;-77
2022/12/04 12:19:24;;;;;;;14.15;5.35;;;;;;;-4.62;85.77;103167.19;10591492;28;20406;-77
2022/12/04 12:24:48;;;;;;;10.00;4.35;;;;;;;-4.61;85.35;103172.44;10570446;28;20043;-77
2022/12/04 12:30:05;;;;;;;14.80;4.53;;;;;;;-4.63;85.46;103177.06;10591066;28;20044;-77
2022/12/04 12:35:35;;;;;;;11.27;4.65;;;;;;;-4.64;85.29;103170.00;10578421;28;20050;-78
2022/12/04 12:40:54;;;;;;;12.05;5.72;;;;;;;-4.72;85.12;103176.91;10607837;28;20046;-77
2022/12/04 12:46:12;;;;;;;13.65;5.82;;;;;;;-4.88;85.46;103187.94;10588434;28;20054;-77
2022/12/04 12:51:26;;;;;;;6.50;2.38;;;;;;;-4.90;85.94;103163.13;10607451;28;20055;-76
2022/12/04 12:56:32;;;;;;;8.27;3.88;;;;;;;-4.98;85.84;103169.06;10593398;28;20039;-76
2022/12/04 13:01:57;;;;;;;9.32;4.60;;;;;;;-4.80;86.28;103182.88;10588728;28;20043;-77
2022/12/04 13:07:14;;;;;;;9.98;4.57;;;;;;;-4.94;86.33;103175.91;10615681;28;20478;-77
2022/12/04 13:12:17;;;;;;;6.80;3.92;;;;;;;-4.94;85.64;103183.09;10616596;28;20302;-77
2022/12/04 13:17:23;;;;;;;7.95;4.30;;;;;;;-4.92;86.11;103186.50;10600580;27;20516;-76
2022/12/04 13:22:37;;;;;;;10.30;3.58;;;;;;;-4.97;86.53;103172.59;10601208;27;20039;-76
2022/12/04 13:27:50;;;;;;;12.05;4.93;;;;;;;-4.92;86.28;103171.28;10624621;27;20032;-76
2022/12/04 13:33:22;;;;;;;7.88;4.10;;;;;;;-4.83;86.22;103166.19;10631701;27;20467;-77
2022/12/04 13:38:45;;;;;;;7.85;4.40;;;;;;;-4.73;86.08;103168.03;10599996;27;20056;-77
2022/12/04 13:43:49;;;;;;;7.60;4.55;;;;;;;-4.66;86.16;103169.28;10598214;27;20048;-76
2022/12/04 13:48:51;;;;;;;8.90;3.78;;;;;;;-4.55;85.45;103161.22;10607780;27;20040;-80
2022/12/04 13:54:22;;;;;;;8.45;3.67;;;;;;;-4.50;85.69;103168.09;10612783;27;20043;-81
2022/12/04 13:59:27;;;;;;;6.75;3.55;;;;;;;-4.58;84.88;103160.63;10594039;27;20047;-82
2022/12/04 14:04:45;;;;;;;8.48;4.32;;;;;;;-4.52;85.11;103144.06;10561259;28;20165;-81
2022/12/04 14:09:52;;;;;;;8.50;3.28;;;;;;;-4.51;85.14;103152.94;10585216;28;20501;-81
2022/12/04 14:14:59;;;;;;;3.17;1.90;;;;;;;-4.65;85.01;103156.72;10559602;28;20043;-79
2022/12/04 14:20:07;;;;;;;7.53;3.63;;;;;;;-4.68;85.32;103140.91;10632269;27;20035;-79
2022/12/04 14:25:12;;;;;;;7.65;3.28;;;;;;;-4.64;85.62;103135.19;10598069;27;20055;-80
2022/12/04 14:30:15;;;;;;;7.25;3.83;;;;;;;-4.71;85.51;103147.31;10607047;28;20070;-79
2022/12/04 14:35:25;;;;;;;9.35;4.10;;;;;;;-4.60;85.51;103133.97;10599120;27;20417;-78
2022/12/04 14:40:34;;;;;;;9.63;4.22;;;;;;;-4.57;85.87;103116.78;10615175;27;20042;-76
2022/12/04 14:45:44;;;;;;;9.23;4.60;;;;;;;-4.70;85.95;103129.44;10644870;27;20066;-77
2022/12/04 14:51:24;;;;;;;9.63;4.60;;;;;;;-4.57;85.56;103128.34;10621323;27;20040;-78
2022/12/04 14:56:45;;;;;;;10.75;4.25;;;;;;;-4.53;86.10;103126.28;10606719;27;20043;-76
2022/12/04 15:01:48;;;;;;;7.10;3.53;;;;;;;-4.35;86.00;103138.22;10578099;28;20489;-78
2022/12/04 15:06:52;;;;;;;10.93;4.03;;;;;;;-4.14;85.86;103106.19;10600870;27;20052;-76
2022/12/04 15:17:17;;;;;;;6.07;4.03;;;;;;;-4.38;85.23;103122.38;10593406;27;20055;-78
2022/12/04 15:22:25;;;;;;;8.88;4.00;;;;;;;-4.14;85.04;103118.72;10596274;27;20043;-77
2022/12/04 15:27:28;;;;;;;13.07;4.63;;;;;;;-3.89;85.05;103125.63;10580084;27;20520;-77
2022/12/04 15:32:30;;;;;;;9.55;4.50;;;;;;;-3.96;84.96;103120.75;10609517;27;20039;-77
2022/12/04 15:37:33;;;;;;;11.52;3.95;;;;;;;-3.99;84.73;103125.53;10595107;28;20047;-77
2022/12/04 15:42:35;;;;;;;6.63;3.47;;;;;;;-3.60;84.53;103124.06;10611627;27;20051;-78
2022/12/04 15:47:50;;;;;;;10.45;4.15;;;;;;;-3.27;84.24;103120.41;10619018;27;20059;-77
2022/12/04 15:52:55;;;;;;;8.18;3.47;;;;;;;-3.10;83.04;103130.56;10595265;28;20382;-78
2022/12/04 15:58:03;;;;;;;10.88;4.80;;;;;;;-3.24;82.87;103119.28;10609563;28;20470;-77
2022/12/04 16:03:20;;;;;;;13.57;5.82;;;;;;;-3.43;82.55;103110.09;10590444;28;20036;-77
2022/12/04 16:08:27;;;;;;;7.38;3.78;;;;;;;-3.49;82.75;103110.59;10586778;27;20062;-77
2022/12/04 16:13:35;;;;;;;8.18;4.60;;;;;;;-3.56;83.03;103097.84;10604782;27;20054;-78
2022/12/04 16:18:38;;;;;;;9.45;4.85;;;;;;;-3.38;82.80;103099.81;10598038;27;20051;-78
2022/12/04 16:23:40;;;;;;;8.13;3.85;;;;;;;-3.65;82.42;103088.72;10619631;27;20031;-77
2022/12/04 16:28:43;;;;;;;9.70;4.47;;;;;;;-3.74;82.66;103084.13;10560937;28;20449;-77
2022/12/04 16:33:45;;;;;;;8.10;4.15;;;;;;;-3.86;82.76;103085.13;10575767;27;20055;-78
2022/12/04 16:38:49;;;;;;;7.93;4.18;;;;;;;-3.89;83.22;103080.88;10595117;28;20043;-77
2022/12/04 16:43:54;;;;;;;9.63;4.22;;;;;;;-3.74;83.52;103084.97;10626856;27;20045;-78
2022/12/04 16:48:56;;;;;;;9.38;3.47;;;;;;;-3.85;83.12;103087.69;10654310;27;20501;-78
2022/12/04 16:53:59;;;;;;;8.40;4.00;;;;;;;-3.69;83.23;103073.84;10654052;28;20043;-78
2022/12/04 16:59:01;;;;;;;7.45;3.15;;;;;;;-3.54;83.37;103074.41;10634753;28;20039;-78
2022/12/04 17:04:03;;;;;;;9.60;4.30;;;;;;;-3.83;83.24;103069.63;10616678;28;20047;-76
2022/12/04 17:09:05;;;;;;;6.60;3.75;;;;;;;-4.03;83.73;103057.00;10593395;28;20048;-78
2022/12/04 17:14:37;;;;;;;8.20;3.63;;;;;;;-4.00;83.59;103046.88;10607057;28;20558;-78
2022/12/04 17:19:40;;;;;;;8.05;4.10;;;;;;;-3.85;84.36;103060.84;10611844;28;20051;-78
2022/12/04 17:24:42;;;;;;;5.05;2.80;;;;;;;-3.70;83.84;103053.38;10592245;28;20486;-78
2022/12/04 17:29:44;;;;;;;7.47;3.38;;;;;;;-3.71;83.39;103041.78;10603345;28;20036;-78
2022/12/04 17:34:46;;;;;;;11.77;5.32;;;;;;;-3.84;83.37;103042.94;10604891;28;20051;-78
2022/12/04 17:39:48;;;;;;;6.53;3.28;;;;;;;-3.91;83.42;103037.25;10584824;28;20040;-78
2022/12/04 17:44:51;;;;;;;6.78;3.97;;;;;;;-4.12;84.01;103028.28;10608007;28;20052;-78
2022/12/04 17:49:53;;;;;;;8.40;3.75;;;;;;;-3.91;83.98;103031.03;10598916;27;20039;-76
2022/12/04 17:54:55;;;;;;;8.35;4.03;;;;;;;-3.99;83.72;103021.81;10626840;27;20043;-76
2022/12/04 17:59:57;;;;;;;7.35;3.53;;;;;;;-3.86;84.21;103032.34;10617440;27;20043;-75
2022/12/04 18:04:59;;;;;;;8.70;3.80;;;;;;;-3.71;84.04;103027.53;10613298;27;20417;-76
2022/12/04 18:10:06;;;;;;;10.60;4.57;;;;;;;-3.61;83.71;103031.16;10600658;28;20551;-76
2022/12/04 18:15:41;;;;;;;6.47;3.38;;;;;;;-3.72;83.52;103023.13;10606282;27;20063;-76
2022/12/04 18:20:43;;;;;;;11.45;4.03;;;;;;;-3.69;83.46;103025.56;10617277;27;20049;-77
2022/12/04 18:25:56;;;;;;;10.40;3.70;;;;;;;-3.81;84.07;103022.09;10620676;27;20032;-77
2022/12/04 18:31:04;;;;;;;8.70;4.85;;;;;;;-3.81;84.08;103022.09;10627889;27;20053;-77
2022/12/04 18:36:19;;;;;;;7.93;4.45;;;;;;;-3.87;84.49;103019.06;10637638;27;20042;-79
2022/12/04 18:41:22;;;;;;;9.95;3.70;;;;;;;-3.95;84.42;103023.25;10609810;27;20421;-78
2022/12/04 18:46:24;;;;;;;9.45;4.10;;;;;;;-3.91;85.37;103006.88;10581634;27;20532;-77
2022/12/04 18:51:33;;;;;;;8.90;3.70;;;;;;;-3.94;85.28;103008.00;10615137;28;20046;-79
2022/12/04 18:56:39;;;;;;;4.13;2.45;;;;;;;-3.88;85.73;102999.44;10606114;28;20040;-79
2022/12/04 19:01:42;;;;;;;10.82;3.78;;;;;;;-3.92;85.65;103006.03;10603396;28;20050;-79
2022/12/04 19:06:50;;;;;;;8.93;4.32;;;;;;;-3.73;85.76;102998.13;10621196;27;20048;-79
2022/12/04 19:11:52;;;;;;;5.43;2.95;;;;;;;-3.71;85.65;102998.00;10588505;27;20051;-80
2022/12/04 19:16:54;;;;;;;9.02;4.30;;;;;;;-3.75;85.33;103004.63;10602646;27;20044;-78
2022/12/04 19:21:57;;;;;;;11.77;4.35;;;;;;;-3.51;85.14;102991.78;10599905;27;20043;-76
2022/12/04 19:27:00;;;;;;;9.50;3.53;;;;;;;-3.64;84.77;102988.47;10656574;27;20398;-77
2022/12/04 19:32:03;;;;;;;10.93;4.68;;;;;;;-3.75;84.82;102996.56;10638201;27;20130;-77
2022/12/04 19:37:06;;;;;;;12.52;5.00;;;;;;;-3.86;84.76;103004.66;10635309;27;20047;-76
2022/12/04 19:42:08;;;;;;;11.60;3.78;;;;;;;-3.84;84.91;102990.13;10647454;27;20031;-78
2022/12/04 19:47:10;;;;;;;9.57;4.30;;;;;;;-3.68;84.76;102995.06;10614129;27;20048;-78
2022/12/04 19:52:13;;;;;;;12.05;5.38;;;;;;;-3.64;84.34;102975.06;10609625;27;20038;-79
2022/12/04 19:57:15;;;;;;;11.05;5.78;;;;;;;-3.66;84.67;102985.03;10624723;27;20035;-79
2022/12/04 20:02:18;;;;;;;12.02;5.72;;;;;;;-3.65;84.15;102987.59;10620923;27;20039;-79
2022/12/04 20:07:20;;;;;;;13.13;5.75;;;;;;;-3.49;84.50;102976.41;10656364;27;20497;-78
2022/12/04 20:12:23;;;;;;;10.05;5.43;;;;;;;-3.28;84.19;102963.00;10634971;27;20051;-80
2022/12/04 20:17:26;;;;;;;14.80;5.30;;;;;;;-3.00;83.47;102960.56;10612109;28;20417;-79
2022/12/04 20:22:29;;;;;;;12.80;5.70;;;;;;;-3.06;82.77;102960.13;10605111;27;20032;-79
2022/12/04 20:27:32;;;;;;;10.77;5.25;;;;;;;-3.07;82.48;102957.56;10613507;28;20406;-79
2022/12/04 20:32:34;;;;;;;14.10;5.30;;;;;;;-3.16;83.14;102953.84;10648479;27;20050;-79
2022/12/04 20:37:36;;;;;;;11.82;5.85;;;;;;;-3.16;83.08;102955.69;10642278;27;20500;-79
2022/12/04 20:42:38;;;;;;;10.15;5.45;;;;;;;-3.20;82.68;102959.63;10594115;28;20039;-78
2022/12/04 20:47:41;;;;;;;12.90;5.50;;;;;;;-3.46;83.35;102948.47;10612110;28;20054;-78
2022/12/04 20:52:43;;;;;;;10.77;5.68;;;;;;;-3.34;83.51;102937.50;10611466;28;20066;-79
2022/12/04 20:57:45;;;;;;;11.70;4.88;;;;;;;-3.36;83.36;102928.75;10611022;28;20040;-80
2022/12/04 21:02:47;;;;;;;9.90;4.90;;;;;;;-3.25;83.20;102929.66;10613831;28;20048;-79
2022/12/04 21:07:49;;;;;;;10.82;5.15;;;;;;;-3.27;82.91;102921.72;10617140;28;20062;-78
2022/12/04 21:18:13;;;;;;;11.73;5.00;;;;;;;-3.31;82.60;102919.44;10597649;28;20048;-78
2022/12/04 21:23:15;;;;;;;9.05;4.70;;;;;;;-3.38;82.44;102925.34;10622538;27;20050;-77
2022/12/04 21:28:17;;;;;;;10.45;5.47;;;;;;;-3.54;82.35;102919.59;10629654;27;20445;-77
2022/12/04 21:33:20;;;;;;;12.52;4.93;;;;;;;-3.57;82.74;102922.56;10657125;27;20537;-77
2022/12/04 21:38:22;;;;;;;7.65;4.85;;;;;;;-3.36;83.00;102918.00;10652725;27;20046;-77
2022/12/04 21:43:30;;;;;;;10.43;4.68;;;;;;;-3.26;82.79;102914.53;10629297;27;20039;-77
2022/12/04 21:48:34;;;;;;;9.27;4.63;;;;;;;-3.16;82.38;102894.75;10611747;27;20044;-78
2022/12/04 21:53:36;;;;;;;8.93;4.30;;;;;;;-3.25;82.43;102889.38;10627536;27;20047;-78
2022/12/04 21:58:39;;;;;;;8.13;4.20;;;;;;;-3.09;82.11;102897.78;10599359;28;20040;-78
2022/12/04 22:03:42;;;;;;;9.82;5.28;;;;;;;-3.16;82.25;102880.50;10629184;27;20049;-79
2022/12/04 22:08:44;;;;;;;8.30;4.30;;;;;;;-2.99;82.44;102879.84;10605106;28;20058;-80
2022/12/04 22:13:46;;;;;;;10.93;5.25;;;;;;;-3.05;81.97;102872.34;10629165;27;20429;-81
2022/12/04 22:18:52;;;;;;;9.73;4.45;;;;;;;-3.27;81.77;102872.56;10610846;27;20321;-81
2022/12/04 22:24:00;;;;;;;10.93;4.88;;;;;;;-3.30;82.14;102862.06;10625836;27;20050;-80
2022/12/04 22:29:03;;;;;;;7.80;4.57;;;;;;;-3.35;82.19;102855.28;10610998;28;20502;-80
2022/12/04 22:34:05;;;;;;;8.60;5.00;;;;;;;-3.33;81.99;102853.31;10603395;28;20040;-78
2022/12/04 22:39:08;;;;;;;6.97;3.88;;;;;;;-3.56;82.14;102859.84;10591605;28;20545;-80
2022/12/04 22:44:12;;;;;;;8.93;3.83;;;;;;;-3.59;82.62;102848.53;10627551;27;20111;-77
2022/12/04 22:49:14;;;;;;;9.55;3.95;;;;;;;-3.58;82.50;102855.63;10645847;27;20405;-79
2022/12/04 22:54:16;;;;;;;10.32;4.88;;;;;;;-3.43;82.66;102846.22;10625722;27;20058;-79
2022/12/04 22:59:19;;;;;;;8.80;4.20;;;;;;;-3.31;82.77;102836.22;10618345;27;20047;-79
2022/12/04 23:04:21;;;;;;;11.00;4.72;;;;;;;-3.38;82.54;102841.28;10618641;27;20051;-78
2022/12/04 23:09:24;;;;;;;10.70;5.45;;;;;;;-3.41;82.78;102838.88;10624879;27;20048;-78
2022/12/04 23:14:27;;;;;;;9.50;4.68;;;;;;;-3.45;83.26;102837.47;10613655;28;20059;-79
2022/12/04 23:19:30;;;;;;;9.88;4.38;;;;;;;-3.27;84.00;102832.28;10610643;27;20058;-78
2022/12/04 23:24:37;;;;;;;8.85;4.25;;;;;;;-3.17;83.86;102831.31;10613266;27;20047;-78
2022/12/04 23:29:40;;;;;;;9.63;4.23;;;;;;;-3.16;84.08;102827.63;10580792;27;20044;-78
2022/12/04 23:34:42;;;;;;;8.10;4.47;;;;;;;-3.10;84.10;102824.41;10604039;27;20040;-79
2022/12/04 23:39:44;;;;;;;10.65;4.78;;;;;;;-3.37;84.12;102819.66;10583841;28;20454;-78
2022/12/04 23:44:46;;;;;;;10.07;4.53;;;;;;;-3.50;84.22;102818.19;10603397;28;20542;-79
2022/12/04 23:49:53;;;;;;;7.88;4.65;;;;;;;-3.49;85.17;102823.44;10577156;27;20055;-79